Time;durP1;ratioP1;P1;durP2;ratioP2;P2;SDS_P1;SDS_P2;PMS_P1;PMS_P2;Temp;Humidity;BMP_temperature;BMP_pressure;BME280_temperature;BME280_humidity;BME280_pressure;Samples;Min_cycle;Max_cycle;Signal;HPM_P1;HPM_P2
2022/07/12 00:02:06;;;;;;;4.70;4.30;;;;;;;;;;5025687;27;99996;-73
2022/07/12 00:04:33;;;;;;;5.35;4.95;;;;;;;;;;5026675;27;98552;-73
2022/07/12 00:06:59;;;;;;;5.00;4.70;;;;;;;;;;5032562;27;101031;-73
2022/07/12 00:09:26;;;;;;;7.20;4.10;;;;;;;;;;5025034;27;100024;-73
2022/07/12 00:11:52;;;;;;;4.97;4.57;;;;;;;;;;5036329;27;100278;-73
2022/07/12 00:14:18;;;;;;;5.50;5.10;;;;;;;;;;5030008;27;99902;-73
2022/07/12 00:16:45;;;;;;;9.68;5.28;;;;;;;;;;5046780;27;99920;-73
2022/07/12 00:19:11;;;;;;;4.68;4.45;;;;;;;;;;5049149;27;98965;-73
2022/07/12 00:21:37;;;;;;;4.97;4.57;;;;;;;;;;5049870;27;99138;-73
2022/07/12 00:24:04;;;;;;;4.57;4.25;;;;;;;;;;5047867;27;101612;-73
2022/07/12 00:26:31;;;;;;;5.22;4.65;;;;;;;;;;5044253;27;98555;-73
2022/07/12 00:28:57;;;;;;;5.30;4.82;;;;;;;;;;5032249;27;99456;-73
2022/07/12 00:31:24;;;;;;;4.72;4.45;;;;;;;;;;5050466;27;98526;-73
2022/07/12 00:33:50;;;;;;;4.57;4.35;;;;;;;;;;5047150;27;99799;-73
2022/07/12 00:36:17;;;;;;;4.47;4.25;;;;;;;;;;5029250;27;101011;-73
2022/07/12 00:38:43;;;;;;;5.90;4.85;;;;;;;;;;5029268;27;100094;-73
2022/07/12 00:41:09;;;;;;;4.80;4.50;;;;;;;;;;5029702;27;100101;-73
2022/07/12 00:43:36;;;;;;;4.82;4.45;;;;;;;;;;5035728;27;100174;-74
2022/07/12 00:46:02;;;;;;;5.55;5.18;;;;;;;;;;5040995;27;98606;-73
2022/07/12 00:48:30;;;;;;;6.18;5.57;;;;;;;;;;5028723;27;100156;-73
2022/07/12 00:50:56;;;;;;;5.65;5.18;;;;;;;;;;5026135;27;99451;-73
2022/07/12 00:53:24;;;;;;;5.80;5.40;;;;;;;;;;5025358;27;100188;-73
2022/07/12 00:55:54;;;;;;;5.68;5.28;;;;;;;;;;5026378;27;100028;-73
2022/07/12 00:58:22;;;;;;;5.82;5.40;;;;;;;;;;5025204;27;99529;-72
2022/07/12 01:00:49;;;;;;;5.35;5.03;;;;;;;;;;5026961;27;100296;-73
2022/07/12 01:03:16;;;;;;;5.05;4.72;;;;;;;;;;5028081;27;100228;-73
2022/07/12 01:05:44;;;;;;;6.00;5.10;;;;;;;;;;5025981;27;99607;-73
2022/07/12 01:08:11;;;;;;;7.05;5.30;;;;;;;;;;5027742;27;100018;-73
2022/07/12 01:10:38;;;;;;;5.18;4.78;;;;;;;;;;5029732;27;100195;-73
2022/07/12 01:13:05;;;;;;;7.07;4.95;;;;;;;;;;5022142;27;100386;-73
2022/07/12 01:15:31;;;;;;;5.25;4.95;;;;;;;;;;5026965;27;99536;-73
2022/07/12 01:17:58;;;;;;;5.15;4.72;;;;;;;;;;5026936;27;99650;-73
2022/07/12 01:20:25;;;;;;;8.40;5.15;;;;;;;;;;5025526;27;99540;-73
2022/07/12 01:22:52;;;;;;;6.10;5.57;;;;;;;;;;5029881;27;99234;-73
2022/07/12 01:25:19;;;;;;;5.00;4.70;;;;;;;;;;5025112;27;99758;-73
2022/07/12 01:27:46;;;;;;;5.32;4.60;;;;;;;;;;5024876;27;100662;-73
2022/07/12 01:30:12;;;;;;;5.78;4.30;;;;;;;;;;5026788;27;100243;-73
2022/07/12 01:32:39;;;;;;;5.22;4.63;;;;;;;;;;5027935;27;98748;-73
2022/07/12 01:35:06;;;;;;;5.18;4.70;;;;;;;;;;5024867;27;100317;-73
2022/07/12 01:37:33;;;;;;;5.18;4.68;;;;;;;;;;5025106;27;99163;-73
2022/07/12 01:40:00;;;;;;;9.07;5.22;;;;;;;;;;5025832;27;100257;-73
2022/07/12 01:42:28;;;;;;;6.63;5.03;;;;;;;;;;5025732;27;99069;-73
2022/07/12 01:44:54;;;;;;;5.70;5.28;;;;;;;;;;5027397;27;99226;-73
2022/07/12 01:47:21;;;;;;;5.45;5.05;;;;;;;;;;5026338;27;100614;-73
2022/07/12 01:49:47;;;;;;;5.47;5.07;;;;;;;;;;5025209;27;101063;-73
2022/07/12 01:52:15;;;;;;;6.00;5.60;;;;;;;;;;5025772;27;101138;-73
2022/07/12 01:54:42;;;;;;;5.43;5.13;;;;;;;;;;5025741;27;99623;-74
2022/07/12 01:57:09;;;;;;;8.43;5.80;;;;;;;;;;5027509;27;100418;-73
2022/07/12 01:59:35;;;;;;;6.65;5.40;;;;;;;;;;5026985;27;100116;-73
2022/07/12 02:02:02;;;;;;;7.10;6.60;;;;;;;;;;5025223;27;100113;-73
2022/07/12 02:04:29;;;;;;;6.60;6.03;;;;;;;;;;5024484;27;98699;-73
2022/07/12 02:06:56;;;;;;;5.68;5.15;;;;;;;;;;5025684;27;99071;-73
2022/07/12 02:09:22;;;;;;;10.25;6.60;;;;;;;;;;5025982;27;100731;-74
2022/07/12 02:11:49;;;;;;;7.30;6.30;;;;;;;;;;5032166;27;100311;-73
2022/07/12 02:14:15;;;;;;;6.57;6.18;;;;;;;;;;5026445;27;99962;-73
2022/07/12 02:16:42;;;;;;;6.65;6.15;;;;;;;;;;5040157;27;100189;-73
2022/07/12 02:19:10;;;;;;;6.72;6.15;;;;;;;;;;5034886;27;99789;-73
2022/07/12 02:21:36;;;;;;;6.68;6.18;;;;;;;;;;5039680;27;100265;-73
2022/07/12 02:24:03;;;;;;;6.82;6.25;;;;;;;;;;5040345;27;98598;-73
2022/07/12 02:26:32;;;;;;;7.85;6.18;;;;;;;;;;5038560;27;100013;-73
2022/07/12 02:28:58;;;;;;;6.72;6.30;;;;;;;;;;5043206;27;99500;-73
2022/07/12 02:31:25;;;;;;;7.18;6.57;;;;;;;;;;5036769;27;97955;-73
2022/07/12 02:33:52;;;;;;;7.18;6.45;;;;;;;;;;5037441;27;98616;-73
2022/07/12 02:36:18;;;;;;;5.93;5.57;;;;;;;;;;5036393;27;100242;-73
2022/07/12 02:38:45;;;;;;;7.55;6.95;;;;;;;;;;5041439;27;100417;-74
2022/07/12 02:41:11;;;;;;;7.10;6.50;;;;;;;;;;5037763;27;100088;-73
2022/07/12 02:43:37;;;;;;;7.65;7.13;;;;;;;;;;5026790;27;98612;-73
2022/07/12 02:46:11;;;;;;;7.68;6.47;;;;;;;;;;5030575;27;100744;-73
2022/07/12 02:48:38;;;;;;;6.03;5.65;;;;;;;;;;5028491;27;100246;-73
2022/07/12 02:51:05;;;;;;;7.35;5.60;;;;;;;;;;5030868;27;100087;-73
2022/07/12 02:53:32;;;;;;;5.95;5.55;;;;;;;;;;5026304;27;99360;-73
2022/07/12 02:56:06;;;;;;;5.25;4.85;;;;;;;;;;5028179;27;98442;-73
2022/07/12 02:58:33;;;;;;;6.15;5.65;;;;;;;;;;5036470;27;98637;-73
2022/07/12 03:01:00;;;;;;;7.68;4.93;;;;;;;;;;5025318;27;100817;-73
2022/07/12 03:03:26;;;;;;;8.80;5.38;;;;;;;;;;5031615;27;99654;-73
2022/07/12 03:05:53;;;;;;;9.07;5.20;;;;;;;;;;5029071;27;100642;-73
2022/07/12 03:08:19;;;;;;;8.00;5.82;;;;;;;;;;5026538;27;100354;-73
2022/07/12 03:10:46;;;;;;;6.45;5.95;;;;;;;;;;5028950;27;99831;-73
2022/07/12 03:13:12;;;;;;;5.50;4.97;;;;;;;;;;5030028;27;100004;-73
2022/07/12 03:15:38;;;;;;;9.07;5.90;;;;;;;;;;5028502;27;99807;-73
2022/07/12 03:18:05;;;;;;;5.97;5.57;;;;;;;;;;5030091;27;100029;-73
2022/07/12 03:20:32;;;;;;;6.32;5.78;;;;;;;;;;5036057;27;100335;-73
2022/07/12 03:22:58;;;;;;;6.80;6.13;;;;;;;;;;5023161;27;100100;-73
2022/07/12 03:25:24;;;;;;;7.15;6.50;;;;;;;;;;5029665;27;100059;-73
2022/07/12 03:27:51;;;;;;;6.18;5.78;;;;;;;;;;5027938;27;102266;-73
2022/07/12 03:30:18;;;;;;;6.05;5.65;;;;;;;;;;5027225;27;100051;-73
2022/07/12 03:32:44;;;;;;;9.13;6.32;;;;;;;;;;5025462;27;100445;-73
2022/07/12 03:35:10;;;;;;;5.63;5.22;;;;;;;;;;5025638;27;99610;-72
2022/07/12 03:37:44;;;;;;;6.57;5.80;;;;;;;;;;5027408;27;100279;-73
2022/07/12 03:40:11;;;;;;;6.43;5.90;;;;;;;;;;5028556;27;98994;-73
2022/07/12 03:42:37;;;;;;;5.93;5.43;;;;;;;;;;5028078;27;102059;-72
2022/07/12 03:45:05;;;;;;;6.25;5.75;;;;;;;;;;5027299;27;99708;-73
2022/07/12 03:47:31;;;;;;;5.65;5.18;;;;;;;;;;5028036;27;100248;-73
2022/07/12 03:49:58;;;;;;;5.57;5.28;;;;;;;;;;5026818;27;100000;-72
2022/07/12 03:52:24;;;;;;;5.60;5.30;;;;;;;;;;5029326;27;99377;-73
2022/07/12 03:54:51;;;;;;;5.97;5.68;;;;;;;;;;5027019;27;100367;-73
2022/07/12 03:57:17;;;;;;;8.73;5.95;;;;;;;;;;5025475;27;99584;-73
2022/07/12 03:59:44;;;;;;;5.68;5.28;;;;;;;;;;5025845;27;99936;-73
2022/07/12 04:02:11;;;;;;;6.10;5.70;;;;;;;;;;5030014;27;100203;-73
2022/07/12 04:04:38;;;;;;;6.05;5.65;;;;;;;;;;5032396;27;98880;-73
2022/07/12 04:07:05;;;;;;;6.72;6.10;;;;;;;;;;5025680;27;99415;-73
2022/07/12 04:09:31;;;;;;;7.18;6.20;;;;;;;;;;5025574;27;98840;-73
2022/07/12 04:11:57;;;;;;;5.97;5.55;;;;;;;;;;5023524;27;100093;-73
2022/07/12 04:14:24;;;;;;;9.25;6.13;;;;;;;;;;5028648;27;100258;-73
2022/07/12 04:16:50;;;;;;;6.18;5.47;;;;;;;;;;5027580;27;100391;-73
2022/07/12 04:19:16;;;;;;;6.70;6.20;;;;;;;;;;5031445;27;100964;-73
2022/07/12 04:21:43;;;;;;;5.75;5.13;;;;;;;;;;5023844;27;100982;-73
2022/07/12 04:24:09;;;;;;;6.05;5.65;;;;;;;;;;5024946;27;99842;-73
2022/07/12 04:26:35;;;;;;;6.55;6.05;;;;;;;;;;5028675;27;99990;-73
2022/07/12 04:29:02;;;;;;;6.10;5.70;;;;;;;;;;5027126;27;100697;-73
2022/07/12 04:31:28;;;;;;;9.68;6.07;;;;;;;;;;5027360;27;100368;-73
2022/07/12 04:33:54;;;;;;;6.07;5.63;;;;;;;;;;5028452;27;99772;-73
2022/07/12 04:36:21;;;;;;;6.10;5.72;;;;;;;;;;5027977;27;99847;-73
2022/07/12 04:38:47;;;;;;;7.55;6.88;;;;;;;;;;5030769;27;99552;-73
2022/07/12 04:41:14;;;;;;;6.63;6.03;;;;;;;;;;5027087;27;100126;-73
2022/07/12 04:43:43;;;;;;;8.30;7.53;;;;;;;;;;5024851;27;98703;-72
2022/07/12 04:46:10;;;;;;;10.80;6.90;;;;;;;;;;5029582;27;99972;-73
2022/07/12 04:48:37;;;;;;;9.73;7.40;;;;;;;;;;5022586;27;100039;-73
2022/07/12 04:51:04;;;;;;;7.78;7.10;;;;;;;;;;5028257;27;99140;-73
2022/07/12 04:53:30;;;;;;;7.85;7.25;;;;;;;;;;5026721;27;99476;-73
2022/07/12 04:55:57;;;;;;;10.15;7.15;;;;;;;;;;5028337;27;98644;-74
2022/07/12 04:58:23;;;;;;;7.78;7.10;;;;;;;;;;5029567;27;100184;-74
2022/07/12 05:00:50;;;;;;;7.68;7.13;;;;;;;;;;5025987;27;100275;-74
2022/07/12 05:03:16;;;;;;;11.25;7.60;;;;;;;;;;5028057;27;99256;-72
2022/07/12 05:05:43;;;;;;;7.63;6.68;;;;;;;;;;5028273;27;101033;-72
2022/07/12 05:08:09;;;;;;;7.85;7.10;;;;;;;;;;5033041;27;100184;-72
2022/07/12 05:10:36;;;;;;;7.57;7.07;;;;;;;;;;5024035;27;99308;-72
2022/07/12 05:13:02;;;;;;;8.65;6.95;;;;;;;;;;5022767;27;101660;-72
2022/07/12 05:15:28;;;;;;;7.60;6.80;;;;;;;;;;5023118;27;100201;-73
2022/07/12 05:17:55;;;;;;;7.30;6.70;;;;;;;;;;5025824;27;100229;-73
2022/07/12 05:20:21;;;;;;;6.50;6.10;;;;;;;;;;5028649;27;100258;-73
2022/07/12 05:22:47;;;;;;;6.55;6.03;;;;;;;;;;5028073;27;97994;-73
2022/07/12 05:25:15;;;;;;;6.10;5.70;;;;;;;;;;5023629;27;100696;-73
2022/07/12 05:27:42;;;;;;;7.07;6.47;;;;;;;;;;5025466;27;100193;-73
2022/07/12 05:30:09;;;;;;;9.88;6.63;;;;;;;;;;5026256;27;100822;-73
2022/07/12 05:32:35;;;;;;;6.78;6.18;;;;;;;;;;5021333;27;100094;-72
2022/07/12 05:35:01;;;;;;;6.80;6.15;;;;;;;;;;5028303;27;100267;-72
2022/07/12 05:37:28;;;;;;;8.48;6.40;;;;;;;;;;5026000;27;100332;-72
2022/07/12 05:39:54;;;;;;;7.72;6.07;;;;;;;;;;5025583;27;100031;-72
2022/07/12 05:42:21;;;;;;;13.18;6.15;;;;;;;;;;5026088;27;99574;-73
2022/07/12 05:44:47;;;;;;;6.38;5.97;;;;;;;;;;5023309;27;100080;-73
2022/07/12 05:47:13;;;;;;;7.38;6.68;;;;;;;;;;5025271;27;99665;-73
2022/07/12 05:49:40;;;;;;;6.93;6.40;;;;;;;;;;5026285;27;100046;-73
2022/07/12 05:54:51;;;;;;;8.35;5.25;;;;;;;;;;5022951;27;100550;-72
2022/07/12 05:57:19;;;;;;;8.45;5.30;;;;;;;;;;5023911;27;100096;-73
2022/07/12 05:59:45;;;;;;;5.72;4.78;;;;;;;;;;5030304;27;100026;-72
2022/07/12 06:02:12;;;;;;;5.55;3.88;;;;;;;;;;5027777;27;100198;-73
2022/07/12 06:04:38;;;;;;;6.65;3.67;;;;;;;;;;5025897;27;100281;-73
2022/07/12 06:07:05;;;;;;;3.90;3.35;;;;;;;;;;5028016;27;101637;-73
2022/07/12 06:09:31;;;;;;;9.07;4.03;;;;;;;;;;5031067;27;99918;-73
2022/07/12 06:11:58;;;;;;;5.40;3.95;;;;;;;;;;5032206;27;99396;-73
2022/07/12 06:14:24;;;;;;;5.43;3.47;;;;;;;;;;5037041;27;99754;-81
2022/07/12 06:16:51;;;;;;;6.35;4.75;;;;;;;;;;5033834;27;100094;-76
2022/07/12 06:19:17;;;;;;;14.00;6.00;;;;;;;;;;5039368;27;100056;-76
2022/07/12 06:21:43;;;;;;;7.13;5.13;;;;;;;;;;5035155;27;100064;-76
2022/07/12 06:24:10;;;;;;;5.88;4.70;;;;;;;;;;5028450;27;99961;-76
2022/07/12 06:26:36;;;;;;;8.13;5.72;;;;;;;;;;5034833;27;100301;-76
2022/07/12 06:29:02;;;;;;;4.72;4.43;;;;;;;;;;5029752;27;98628;-76
2022/07/12 06:31:29;;;;;;;5.63;3.88;;;;;;;;;;5030557;27;100227;-76
2022/07/12 06:34:01;;;;;;;3.72;3.42;;;;;;;;;;5034425;27;99440;-76
2022/07/12 06:36:27;;;;;;;3.90;3.60;;;;;;;;;;5037773;27;99103;-74
2022/07/12 06:38:53;;;;;;;4.03;3.72;;;;;;;;;;5034440;27;99848;-74
2022/07/12 06:41:20;;;;;;;6.03;2.90;;;;;;;;;;5033408;27;100371;-72
2022/07/12 06:43:46;;;;;;;4.90;3.30;;;;;;;;;;5031888;27;100936;-73
2022/07/12 06:46:13;;;;;;;3.10;2.80;;;;;;;;;;5031079;27;100371;-73
2022/07/12 06:48:39;;;;;;;2.88;2.67;;;;;;;;;;5034705;27;98801;-73
2022/07/12 06:51:05;;;;;;;3.50;3.20;;;;;;;;;;5030211;27;100150;-73
2022/07/12 06:53:32;;;;;;;5.18;3.40;;;;;;;;;;5032869;27;100365;-73
2022/07/12 06:55:58;;;;;;;6.55;2.80;;;;;;;;;;5037203;27;100157;-73
2022/07/12 06:58:25;;;;;;;2.95;2.70;;;;;;;;;;5034418;27;99992;-73
2022/07/12 07:00:52;;;;;;;3.30;3.00;;;;;;;;;;5041848;27;98061;-73
2022/07/12 07:03:19;;;;;;;2.88;2.58;;;;;;;;;;5032949;27;100275;-73
2022/07/12 07:05:45;;;;;;;4.25;2.80;;;;;;;;;;5033230;27;100190;-76
2022/07/12 07:08:12;;;;;;;4.15;3.20;;;;;;;;;;5027446;27;100480;-75
2022/07/12 07:10:38;;;;;;;4.25;3.00;;;;;;;;;;5030935;27;100217;-75
2022/07/12 07:13:04;;;;;;;15.52;3.60;;;;;;;;;;5026280;27;99835;-75
2022/07/12 07:15:31;;;;;;;5.63;2.53;;;;;;;;;;5035846;27;98619;-74
2022/07/12 07:17:57;;;;;;;6.13;3.53;;;;;;;;;;5031007;27;100144;-75
2022/07/12 07:20:24;;;;;;;3.40;3.20;;;;;;;;;;5028030;27;99366;-75
2022/07/12 07:22:51;;;;;;;5.50;3.20;;;;;;;;;;5029997;27;99526;-75
2022/07/12 07:25:18;;;;;;;5.63;3.83;;;;;;;;;;5026238;27;99300;-74
2022/07/12 07:27:44;;;;;;;5.60;3.45;;;;;;;;;;5028661;27;100369;-75
2022/07/12 07:32:55;;;;;;;3.65;3.30;;;;;;;;;;5026929;27;101227;-75
2022/07/12 07:35:22;;;;;;;4.15;2.80;;;;;;;;;;5025754;27;100070;-76
2022/07/12 07:37:48;;;;;;;3.42;3.22;;;;;;;;;;5034564;27;99072;-75
2022/07/12 07:40:15;;;;;;;5.82;3.20;;;;;;;;;;5034845;27;99661;-76
2022/07/12 07:42:41;;;;;;;6.75;2.88;;;;;;;;;;5024920;27;100595;-75
2022/07/12 07:45:10;;;;;;;3.65;2.95;;;;;;;;;;5030853;27;100331;-74
2022/07/12 07:47:45;;;;;;;6.53;2.30;;;;;;;;;;5042629;27;98726;-75
2022/07/12 07:50:32;;;;;;;5.78;3.10;;;;;;;;;;5033943;27;99175;-74
2022/07/12 07:52:58;;;;;;;3.58;2.65;;;;;;;;;;5026895;27;100243;-75
2022/07/12 07:55:25;;;;;;;2.70;2.60;;;;;;;;;;5032045;27;100402;-75
2022/07/12 07:57:51;;;;;;;3.88;2.60;;;;;;;;;;5035893;27;100003;-75
2022/07/12 08:00:18;;;;;;;4.40;2.47;;;;;;;;;;5033171;27;100296;-76
2022/07/12 08:02:45;;;;;;;4.95;2.50;;;;;;;;;;5046580;27;98765;-74
2022/07/12 08:05:11;;;;;;;3.17;2.42;;;;;;;;;;5031975;27;100107;-73
2022/07/12 08:07:37;;;;;;;3.17;2.80;;;;;;;;;;5029005;27;99304;-74
2022/07/12 08:10:21;;;;;;;4.00;2.60;;;;;;;;;;5023974;27;99897;-74
2022/07/12 08:12:47;;;;;;;2.78;2.58;;;;;;;;;;5025979;27;100278;-74
2022/07/12 08:15:13;;;;;;;5.70;2.25;;;;;;;;;;5031639;27;99671;-74
2022/07/12 08:17:40;;;;;;;4.30;2.33;;;;;;;;;;5029394;27;98630;-74
2022/07/12 08:20:15;;;;;;;3.17;2.22;;;;;;;;;;5032651;27;100916;-74
2022/07/12 08:23:02;;;;;;;8.50;2.25;;;;;;;;;;5029641;27;99374;-74
2022/07/12 08:25:28;;;;;;;3.45;2.20;;;;;;;;;;5030362;27;100756;-73
2022/07/12 08:27:55;;;;;;;6.30;2.28;;;;;;;;;;5029947;27;99648;-73
2022/07/12 08:30:22;;;;;;;2.25;2.15;;;;;;;;;;5026460;27;100146;-73
2022/07/12 08:32:48;;;;;;;3.80;2.20;;;;;;;;;;5028481;27;100401;-73
2022/07/12 08:35:14;;;;;;;2.13;2.00;;;;;;;;;;5032193;27;98718;-73
2022/07/12 08:37:41;;;;;;;3.47;2.28;;;;;;;;;;5030128;27;99994;-74
2022/07/12 08:40:08;;;;;;;2.20;2.10;;;;;;;;;;5030423;27;99452;-74
2022/07/12 08:42:35;;;;;;;3.75;2.42;;;;;;;;;;5025601;27;100192;-74
2022/07/12 08:45:01;;;;;;;2.33;2.08;;;;;;;;;;5042886;27;99124;-74
2022/07/12 08:47:28;;;;;;;4.30;2.58;;;;;;;;;;5029377;27;99396;-74
2022/07/12 08:50:12;;;;;;;4.30;2.10;;;;;;;;;;5031700;27;100462;-74
2022/07/12 08:52:46;;;;;;;7.80;2.05;;;;;;;;;;5027117;27;100237;-75
2022/07/12 08:55:20;;;;;;;3.38;2.00;;;;;;;;;;5025527;27;99980;-74
2022/07/12 08:57:47;;;;;;;1.85;1.73;;;;;;;;;;5024320;27;101712;-74
2022/07/12 09:00:14;;;;;;;6.35;2.13;;;;;;;;;;5027736;27;100614;-74
2022/07/12 09:02:46;;;;;;;6.20;1.80;;;;;;;;;;5026409;27;99569;-75
2022/07/12 09:05:13;;;;;;;2.17;1.65;;;;;;;;;;5026037;27;99083;-75
2022/07/12 09:07:40;;;;;;;6.43;1.80;;;;;;;;;;5030595;27;102794;-75
2022/07/12 09:10:07;;;;;;;1.90;1.80;;;;;;;;;;5026259;27;100914;-74
2022/07/12 09:12:34;;;;;;;1.90;1.80;;;;;;;;;;5023709;27;101449;-74
2022/07/12 09:15:20;;;;;;;3.80;1.67;;;;;;;;;;5022382;27;99786;-75
2022/07/12 09:18:03;;;;;;;4.32;1.58;;;;;;;;;;5027897;27;100583;-75
2022/07/12 09:20:34;;;;;;;1.63;1.52;;;;;;;;;;5027621;27;100174;-74
2022/07/12 09:23:03;;;;;;;3.85;1.70;;;;;;;;;;5034725;27;98697;-75
2022/07/12 09:25:32;;;;;;;1.65;1.55;;;;;;;;;;5030847;27;99245;-74
2022/07/12 09:27:59;;;;;;;1.52;1.42;;;;;;;;;;5027078;27;100608;-74
2022/07/12 09:30:27;;;;;;;1.58;1.30;;;;;;;;;;5033045;27;98687;-75
2022/07/12 09:38:28;;;;;;;2.80;1.60;;;;;;;;;;5033289;27;100836;-75
2022/07/12 09:40:55;;;;;;;1.95;1.40;;;;;;;;;;5026534;27;100065;-75
2022/07/12 09:43:22;;;;;;;2.30;1.35;;;;;;;;;;5029824;27;100368;-75
2022/07/12 09:45:49;;;;;;;1.70;1.60;;;;;;;;;;5030944;27;100579;-74
2022/07/12 09:48:16;;;;;;;1.48;1.45;;;;;;;;;;5029766;27;100295;-75
2022/07/12 09:50:47;;;;;;;1.65;1.55;;;;;;;;;;5025519;27;99795;-75
2022/07/12 09:53:18;;;;;;;2.30;1.20;;;;;;;;;;5032559;27;99353;-75
2022/07/12 09:55:45;;;;;;;3.60;1.15;;;;;;;;;;5029969;27;98853;-74
2022/07/12 09:58:12;;;;;;;1.30;1.30;;;;;;;;;;5032530;27;98617;-74
2022/07/12 10:00:38;;;;;;;1.20;1.10;;;;;;;;;;5031282;27;99499;-75
2022/07/12 10:03:07;;;;;;;1.67;1.58;;;;;;;;;;5032346;27;99490;-74
2022/07/12 10:05:34;;;;;;;2.78;1.40;;;;;;;;;;5034846;27;100000;-75
2022/07/12 10:08:01;;;;;;;4.32;1.20;;;;;;;;;;5025826;27;99752;-75
2022/07/12 10:10:28;;;;;;;2.30;1.17;;;;;;;;;;5029022;27;99044;-74
2022/07/12 10:12:55;;;;;;;2.50;1.30;;;;;;;;;;5035996;27;100004;-74
2022/07/12 10:15:25;;;;;;;3.55;1.35;;;;;;;;;;5036622;27;99494;-74
2022/07/12 10:18:00;;;;;;;2.30;1.55;;;;;;;;;;5036243;27;99986;-74
2022/07/12 10:20:27;;;;;;;1.20;1.20;;;;;;;;;;5040062;27;99506;-74
2022/07/12 10:22:54;;;;;;;1.38;1.10;;;;;;;;;;5040246;27;99498;-76
2022/07/12 10:25:30;;;;;;;5.18;1.30;;;;;;;;;;5031709;27;101059;-75
2022/07/12 10:28:00;;;;;;;1.80;1.50;;;;;;;;;;5029610;27;100533;-75
2022/07/12 10:30:27;;;;;;;1.63;1.52;;;;;;;;;;5032042;27;98777;-75
2022/07/12 10:32:57;;;;;;;3.38;1.23;;;;;;;;;;5034370;27;100048;-75
2022/07/12 10:35:25;;;;;;;7.20;1.13;;;;;;;;;;5028718;27;100416;-75
2022/07/12 10:38:26;;;;;;;1.63;0.90;;;;;;;;;;5035297;27;98614;-75
2022/07/12 10:40:53;;;;;;;;;;;;;;;;;;4973762;28;100426;-75
2022/07/12 10:43:21;;;;;;;4.10;1.85;;;;;;;;;;5025893;27;116413;-75
2022/07/12 10:45:48;;;;;;;1.77;1.40;;;;;;;;;;5029024;27;99275;-75
2022/07/12 10:48:17;;;;;;;1.23;1.20;;;;;;;;;;5036875;27;100192;-75
2022/07/12 10:50:48;;;;;;;1.58;1.38;;;;;;;;;;5031007;27;98543;-75
2022/07/12 10:53:25;;;;;;;1.40;1.30;;;;;;;;;;5029922;27;99470;-75
2022/07/12 10:56:07;;;;;;;1.48;1.38;;;;;;;;;;5033079;27;99668;-75
2022/07/12 10:58:34;;;;;;;1.55;1.08;;;;;;;;;;5045280;27;98591;-75
2022/07/12 11:01:02;;;;;;;3.53;1.30;;;;;;;;;;5042791;27;101036;-75
2022/07/12 11:03:42;;;;;;;3.22;1.38;;;;;;;;;;5034210;27;98545;-75
2022/07/12 11:06:10;;;;;;;1.55;1.45;;;;;;;;;;5040299;27;99475;-75
2022/07/12 11:08:46;;;;;;;2.03;1.60;;;;;;;;;;5035684;27;99773;-76
2022/07/12 11:11:13;;;;;;;1.90;1.80;;;;;;;;;;5033866;27;97929;-76
2022/07/12 11:13:39;;;;;;;2.03;1.83;;;;;;;;;;5035850;27;100217;-75
2022/07/12 11:16:06;;;;;;;1.75;1.63;;;;;;;;;;5031867;27;100396;-74
2022/07/12 11:18:33;;;;;;;1.88;1.55;;;;;;;;;;5036537;27;99275;-74
2022/07/12 11:21:01;;;;;;;5.28;1.73;;;;;;;;;;5033732;27;100646;-73
2022/07/12 11:23:28;;;;;;;5.43;1.95;;;;;;;;;;5033610;27;98661;-73
2022/07/12 11:25:58;;;;;;;6.80;1.90;;;;;;;;;;5033362;27;99952;-73
2022/07/12 11:28:25;;;;;;;3.72;1.80;;;;;;;;;;5040129;27;100247;-73
2022/07/12 11:30:51;;;;;;;4.20;1.80;;;;;;;;;;5033668;27;99686;-73
2022/07/12 11:33:18;;;;;;;5.40;1.90;;;;;;;;;;5030879;27;100624;-73
2022/07/12 11:35:45;;;;;;;1.80;1.70;;;;;;;;;;5032340;27;99710;-73
2022/07/12 11:38:12;;;;;;;1.85;1.50;;;;;;;;;;5031242;27;98621;-74
2022/07/12 11:40:38;;;;;;;2.90;1.67;;;;;;;;;;5030839;27;100076;-73
2022/07/12 11:43:05;;;;;;;2.53;1.70;;;;;;;;;;5040873;27;100393;-73
2022/07/12 11:45:32;;;;;;;1.67;1.58;;;;;;;;;;5036236;27;100112;-73
2022/07/12 11:48:00;;;;;;;3.15;1.20;;;;;;;;;;5029117;27;99438;-72
2022/07/12 11:50:28;;;;;;;1.30;1.15;;;;;;;;;;5034900;27;99813;-73
2022/07/12 11:53:01;;;;;;;2.92;1.38;;;;;;;;;;5034815;27;99926;-73
2022/07/12 11:55:27;;;;;;;1.52;1.40;;;;;;;;;;5029854;27;100558;-72
2022/07/12 11:58:03;;;;;;;1.60;1.30;;;;;;;;;;5030133;27;100100;-73
2022/07/12 12:00:29;;;;;;;3.83;1.50;;;;;;;;;;5031300;27;99872;-74
2022/07/12 12:02:56;;;;;;;1.45;1.35;;;;;;;;;;5030165;27;100522;-74
2022/07/12 12:05:23;;;;;;;1.85;1.58;;;;;;;;;;5037071;27;98921;-74
2022/07/12 12:07:50;;;;;;;1.45;1.38;;;;;;;;;;5028864;27;101122;-74
2022/07/12 12:10:20;;;;;;;1.50;1.40;;;;;;;;;;5035928;27;98595;-74
2022/07/12 12:12:51;;;;;;;3.00;1.38;;;;;;;;;;5030479;27;99947;-74
2022/07/12 12:15:29;;;;;;;1.20;1.10;;;;;;;;;;5036365;27;100264;-74
2022/07/12 12:17:57;;;;;;;1.38;1.05;;;;;;;;;;5029476;27;98580;-74
2022/07/12 12:20:27;;;;;;;1.23;1.17;;;;;;;;;;5028770;27;99994;-74
2022/07/12 12:22:55;;;;;;;3.22;1.23;;;;;;;;;;5035169;27;100180;-74
2022/07/12 12:25:22;;;;;;;3.33;1.30;;;;;;;;;;5032987;27;99685;-74
2022/07/12 12:27:53;;;;;;;2.35;1.30;;;;;;;;;;5033253;27;99503;-74
2022/07/12 12:30:56;;;;;;;4.80;1.02;;;;;;;;;;5032728;27;99156;-74
2022/07/12 12:33:38;;;;;;;1.45;1.40;;;;;;;;;;5029291;27;100122;-74
2022/07/12 12:36:14;;;;;;;2.80;1.10;;;;;;;;;;5030214;27;100191;-74
2022/07/12 12:38:42;;;;;;;2.22;1.40;;;;;;;;;;5033572;27;99686;-74
2022/07/12 12:41:09;;;;;;;2.60;1.20;;;;;;;;;;5030112;27;99922;-73
2022/07/12 12:43:36;;;;;;;2.95;1.30;;;;;;;;;;5028782;27;99414;-74
2022/07/12 12:46:03;;;;;;;1.90;1.30;;;;;;;;;;5028893;27;98557;-73
2022/07/12 12:48:29;;;;;;;5.95;1.80;;;;;;;;;;5029831;27;99938;-73
2022/07/12 12:51:10;;;;;;;9.85;1.15;;;;;;;;;;5034913;27;97962;-73
2022/07/12 12:53:38;;;;;;;2.33;1.08;;;;;;;;;;5047253;27;98749;-74
2022/07/12 12:56:07;;;;;;;2.88;1.35;;;;;;;;;;5028844;27;99170;-73
2022/07/12 12:58:34;;;;;;;1.48;1.38;;;;;;;;;;5028560;27;99359;-73
2022/07/12 13:01:01;;;;;;;4.13;1.88;;;;;;;;;;5029031;27;99640;-73
2022/07/12 13:03:28;;;;;;;2.13;1.40;;;;;;;;;;5029288;27;99284;-73
2022/07/12 13:05:54;;;;;;;4.57;1.27;;;;;;;;;;5028985;27;99075;-73
2022/07/12 13:08:21;;;;;;;1.25;1.10;;;;;;;;;;5029583;27;100064;-73
2022/07/12 13:11:18;;;;;;;10.95;1.38;;;;;;;;;;5035288;27;100496;-73
2022/07/12 13:13:35;;;;;;;1.50;1.27;;;;;;;;;;5040918;27;99121;-73
2022/07/12 13:16:01;;;;;;;10.43;1.33;;;;;;;;;;5041273;27;98490;-73
2022/07/12 13:18:27;;;;;;;8.85;0.90;;;;;;;;;;5045321;27;98601;-73
2022/07/12 13:20:54;;;;;;;4.22;1.20;;;;;;;;;;5029539;27;99832;-73
2022/07/12 13:23:20;;;;;;;6.50;1.40;;;;;;;;;;5028591;27;101023;-74
2022/07/12 13:25:48;;;;;;;2.38;1.23;;;;;;;;;;5027940;27;99788;-73
2022/07/12 13:28:20;;;;;;;5.18;1.10;;;;;;;;;;5029348;27;99060;-74
2022/07/12 13:30:46;;;;;;;3.00;1.42;;;;;;;;;;5028128;27;100363;-74
2022/07/12 13:33:12;;;;;;;1.15;1.00;;;;;;;;;;5033645;27;98639;-74
2022/07/12 13:35:40;;;;;;;2.08;1.00;;;;;;;;;;5028021;27;100197;-75
2022/07/12 13:38:07;;;;;;;1.27;1.17;;;;;;;;;;5029383;27;98598;-74
2022/07/12 13:40:34;;;;;;;2.17;1.00;;;;;;;;;;5030733;27;99539;-74
2022/07/12 13:43:00;;;;;;;1.05;1.05;;;;;;;;;;5032893;27;99339;-74
2022/07/12 13:45:26;;;;;;;2.00;1.33;;;;;;;;;;5029675;27;98648;-74
2022/07/12 13:47:53;;;;;;;3.03;1.40;;;;;;;;;;5026820;27;99863;-74
2022/07/12 13:50:21;;;;;;;3.65;1.50;;;;;;;;;;5041672;27;99626;-74
2022/07/12 13:52:56;;;;;;;1.70;1.10;;;;;;;;;;5028856;27;98746;-75
2022/07/12 13:55:22;;;;;;;1.00;1.00;;;;;;;;;;5031089;27;100044;-74
2022/07/12 13:57:49;;;;;;;1.27;1.20;;;;;;;;;;5028131;27;98576;-74
2022/07/12 14:00:16;;;;;;;2.55;1.20;;;;;;;;;;5038336;27;99341;-75
2022/07/12 14:02:43;;;;;;;4.05;1.42;;;;;;;;;;5027716;27;100420;-75
2022/07/12 14:05:16;;;;;;;2.63;1.30;;;;;;;;;;5028243;27;98574;-74
2022/07/12 14:07:44;;;;;;;4.07;1.20;;;;;;;;;;5035683;27;99818;-74
2022/07/12 14:10:12;;;;;;;3.53;1.60;;;;;;;;;;5039987;27;100320;-74
2022/07/12 14:12:38;;;;;;;1.35;1.27;;;;;;;;;;5035196;27;103175;-74
2022/07/12 14:17:37;;;;;;;4.47;1.30;;;;;;;;;;5037378;27;99467;-74
2022/07/12 14:20:04;;;;;;;7.40;1.52;;;;;;;;;;5027984;27;99033;-74
2022/07/12 14:22:30;;;;;;;1.77;1.25;;;;;;;;;;5031380;27;100366;-74
2022/07/12 14:24:57;;;;;;;1.20;1.10;;;;;;;;;;5030705;27;100075;-74
2022/07/12 14:27:23;;;;;;;1.30;1.20;;;;;;;;;;5036969;27;99712;-74
2022/07/12 14:29:50;;;;;;;1.42;1.20;;;;;;;;;;5036676;27;98566;-74
2022/07/12 14:32:16;;;;;;;1.55;1.13;;;;;;;;;;5041749;27;98564;-74
2022/07/12 14:34:43;;;;;;;3.67;1.42;;;;;;;;;;5040595;27;99954;-74
2022/07/12 14:37:09;;;;;;;2.22;1.08;;;;;;;;;;5050240;27;100865;-74
2022/07/12 14:39:36;;;;;;;2.80;1.23;;;;;;;;;;5045224;27;98630;-73
2022/07/12 14:42:02;;;;;;;6.40;1.23;;;;;;;;;;5031820;27;100184;-73
2022/07/12 14:44:28;;;;;;;2.92;1.50;;;;;;;;;;5029044;27;104517;-73
2022/07/12 14:46:55;;;;;;;2.63;1.38;;;;;;;;;;5032025;27;100094;-73
2022/07/12 14:49:21;;;;;;;3.25;1.25;;;;;;;;;;5042360;27;99116;-73
2022/07/12 14:51:48;;;;;;;10.35;1.50;;;;;;;;;;5044356;27;98949;-74
2022/07/12 14:54:14;;;;;;;3.42;1.55;;;;;;;;;;5034755;27;99354;-73